createdAt,value
2018-05-24T00:01:31.378Z,17.30
2018-05-24T00:03:58.954Z,17.30
2018-05-24T00:06:26.507Z,17.30
2018-05-24T00:08:54.123Z,17.40
2018-05-24T00:13:55.784Z,17.30
2018-05-24T00:16:23.371Z,17.30
2018-05-24T00:18:50.954Z,17.30
2018-05-24T00:21:18.504Z,17.30
2018-05-24T00:23:46.059Z,17.30
2018-05-24T00:26:13.632Z,17.40
2018-05-24T00:28:41.199Z,17.40
2018-05-24T00:31:08.762Z,17.30
2018-05-24T00:33:36.380Z,17.30
2018-05-24T00:36:03.931Z,17.30
2018-05-24T00:38:31.491Z,17.30
2018-05-24T00:40:59.249Z,17.40
2018-05-24T00:43:26.818Z,17.40
2018-05-24T00:45:54.386Z,17.50
2018-05-24T00:48:21.960Z,17.50
2018-05-24T00:50:49.543Z,17.50
2018-05-24T00:53:17.144Z,17.40
2018-05-24T00:55:44.864Z,17.40
2018-05-24T00:58:12.440Z,17.50
2018-05-24T01:00:40.008Z,17.50
2018-05-24T01:03:08.324Z,17.40
2018-05-24T01:05:36.701Z,17.40
2018-05-24T01:08:04.279Z,17.40
2018-05-24T01:10:32.027Z,17.30
2018-05-24T01:12:59.569Z,17.40
2018-05-24T01:15:27.123Z,17.40
2018-05-24T01:17:54.907Z,17.40
2018-05-24T01:20:22.513Z,17.40
2018-05-24T01:22:50.126Z,17.40
2018-05-24T01:25:17.895Z,17.30
2018-05-24T01:27:45.460Z,17.30
2018-05-24T01:30:13.060Z,17.20
2018-05-24T01:32:40.596Z,17.20
2018-05-24T01:35:08.145Z,17.10
2018-05-24T01:37:47.541Z,17.10
2018-05-24T01:40:15.847Z,17.20
2018-05-24T01:42:43.418Z,17.10
2018-05-24T01:45:10.981Z,17.10
2018-05-24T01:47:38.546Z,17.10
2018-05-24T01:50:06.104Z,17.00
2018-05-24T01:52:33.683Z,17.00
2018-05-24T01:55:01.248Z,17.00
2018-05-24T01:57:28.826Z,17.00
2018-05-24T01:59:56.407Z,17.00
2018-05-24T02:02:24.789Z,17.00
2018-05-24T02:04:52.350Z,17.00
2018-05-24T02:07:19.915Z,17.00
2018-05-24T02:09:47.639Z,17.00
2018-05-24T02:12:15.181Z,17.00
2018-05-24T02:14:42.815Z,17.00
2018-05-24T02:17:10.539Z,17.00
2018-05-24T02:19:38.137Z,17.00
2018-05-24T02:22:05.685Z,17.00
2018-05-24T02:24:33.257Z,17.00
2018-05-24T02:27:00.827Z,17.00
2018-05-24T02:29:28.400Z,17.00
2018-05-24T02:31:55.963Z,17.00
2018-05-24T02:34:23.585Z,17.10
2018-05-24T02:36:51.144Z,17.10
2018-05-24T02:39:18.744Z,17.10
2018-05-24T02:41:46.287Z,17.10
2018-05-24T02:44:13.871Z,17.10
2018-05-24T02:46:41.403Z,17.10
2018-05-24T02:49:08.940Z,17.10
2018-05-24T02:51:36.505Z,17.10
2018-05-24T02:54:04.082Z,17.10
2018-05-24T02:56:31.642Z,17.10
2018-05-24T02:58:59.203Z,17.00
2018-05-24T03:01:26.759Z,17.00
2018-05-24T03:03:54.324Z,17.00
2018-05-24T03:06:21.900Z,17.00
2018-05-24T03:08:49.537Z,17.00
2018-05-24T03:11:17.272Z,17.00
2018-05-24T03:13:45.788Z,17.00
2018-05-24T03:16:13.380Z,17.00
2018-05-24T03:18:40.928Z,17.00
2018-05-24T03:21:08.504Z,17.00
2018-05-24T03:23:36.052Z,17.00
2018-05-24T03:26:03.616Z,16.90
2018-05-24T03:28:31.172Z,16.90
2018-05-24T03:30:58.753Z,16.90
2018-05-24T03:33:26.298Z,16.90
2018-05-24T03:35:53.957Z,16.90
2018-05-24T03:38:21.511Z,16.90
2018-05-24T03:40:49.076Z,16.80
2018-05-24T03:43:16.621Z,16.80
2018-05-24T03:45:44.190Z,16.80
2018-05-24T03:48:11.760Z,16.80
2018-05-24T03:50:39.432Z,16.80
2018-05-24T03:53:07.051Z,16.80
2018-05-24T03:55:34.619Z,16.80
2018-05-24T03:58:02.188Z,16.70
2018-05-24T04:00:41.736Z,16.80
2018-05-24T04:03:21.307Z,16.80
2018-05-24T04:05:48.979Z,16.80
2018-05-24T04:08:18.264Z,16.80
2018-05-24T04:10:45.803Z,16.80
2018-05-24T04:13:13.540Z,16.80
2018-05-24T04:15:41.085Z,16.80
2018-05-24T04:18:09.435Z,16.80
2018-05-24T04:20:36.994Z,16.80
2018-05-24T04:23:04.560Z,16.80
2018-05-24T04:25:32.220Z,16.80
2018-05-24T04:27:59.779Z,16.90
2018-05-24T04:30:27.358Z,16.90
2018-05-24T04:32:55.724Z,16.90
2018-05-24T04:35:23.254Z,16.90
2018-05-24T04:37:50.792Z,16.90
2018-05-24T04:40:18.441Z,16.90
2018-05-24T04:42:45.983Z,16.90
2018-05-24T04:45:13.595Z,16.90
2018-05-24T04:47:41.139Z,16.90
2018-05-24T04:50:08.835Z,17.00
2018-05-24T04:52:36.402Z,16.90
2018-05-24T04:55:03.943Z,16.90
2018-05-24T04:57:31.615Z,16.90
2018-05-24T04:59:59.313Z,16.90
2018-05-24T05:02:26.861Z,16.90
2018-05-24T05:04:55.196Z,16.90
2018-05-24T05:07:22.768Z,16.90
2018-05-24T05:09:50.474Z,17.00
2018-05-24T05:12:18.052Z,17.10
2018-05-24T05:14:45.726Z,17.10
2018-05-24T05:17:13.192Z,17.10
2018-05-24T05:19:40.779Z,17.10
2018-05-24T05:22:08.322Z,17.10
2018-05-24T05:24:35.868Z,17.20
2018-05-24T05:27:03.438Z,17.10
2018-05-24T05:29:30.992Z,17.20
2018-05-24T05:31:58.563Z,17.30
2018-05-24T05:34:26.119Z,17.40
2018-05-24T05:36:53.731Z,17.50
2018-05-24T05:39:21.370Z,17.60
2018-05-24T05:41:48.931Z,17.90
2018-05-24T05:44:17.972Z,17.90
2018-05-24T05:46:45.543Z,17.90
2018-05-24T05:49:13.101Z,18.00
2018-05-24T05:51:40.664Z,18.10
2018-05-24T05:54:08.210Z,18.10
2018-05-24T05:56:35.791Z,18.10
2018-05-24T05:59:03.336Z,18.20
2018-05-24T06:01:30.889Z,18.10
2018-05-24T06:03:58.454Z,18.30
2018-05-24T06:06:26.023Z,18.50
2018-05-24T06:08:53.606Z,18.70
2018-05-24T06:11:21.152Z,18.60
2018-05-24T06:13:48.754Z,18.70
2018-05-24T06:16:16.307Z,18.70
2018-05-24T06:18:44.649Z,18.90
2018-05-24T06:21:12.192Z,18.90
2018-05-24T06:23:39.753Z,18.80
2018-05-24T06:26:07.308Z,18.80
2018-05-24T06:28:35.078Z,19.00
2018-05-24T06:31:02.526Z,19.00
2018-05-24T06:33:30.098Z,19.10
2018-05-24T06:35:57.703Z,19.20
2018-05-24T06:38:25.267Z,19.30
2018-05-24T06:40:53.685Z,19.60
2018-05-24T06:43:21.351Z,19.50
2018-05-24T06:45:48.910Z,19.60
2018-05-24T06:48:16.464Z,19.40
2018-05-24T06:50:44.061Z,19.30
2018-05-24T06:53:11.807Z,19.10
2018-05-24T06:55:39.376Z,19.10
2018-05-24T06:58:06.964Z,19.10
2018-05-24T07:00:34.507Z,19.40
2018-05-24T07:03:02.077Z,19.60
2018-05-24T07:05:29.650Z,19.60
2018-05-24T07:07:57.210Z,19.80
2018-05-24T07:10:24.819Z,19.90
2018-05-24T07:12:52.443Z,19.90
2018-05-24T07:15:20.799Z,19.90
2018-05-24T07:17:48.340Z,19.90
2018-05-24T07:20:16.039Z,20.10
2018-05-24T07:22:44.381Z,20.00
2018-05-24T07:25:11.944Z,20.00
2018-05-24T07:27:39.500Z,20.10
2018-05-24T07:30:07.131Z,20.30
2018-05-24T07:32:34.847Z,20.40
2018-05-24T07:35:03.140Z,20.40
2018-05-24T07:37:30.716Z,20.40
2018-05-24T07:39:59.048Z,20.50
2018-05-24T07:42:26.612Z,20.50
2018-05-24T07:44:54.207Z,20.40
2018-05-24T07:47:22.557Z,20.70
2018-05-24T07:49:50.088Z,20.70
2018-05-24T07:52:17.639Z,20.80
2018-05-24T07:54:45.291Z,20.80
2018-05-24T07:57:12.826Z,20.80
2018-05-24T07:59:41.158Z,21.00
2018-05-24T08:02:08.720Z,20.90
2018-05-24T08:04:36.299Z,21.10
2018-05-24T08:07:03.851Z,21.30
2018-05-24T08:09:31.503Z,21.30
2018-05-24T08:11:59.055Z,21.50
2018-05-24T08:14:26.603Z,21.70
2018-05-24T08:16:54.175Z,22.10
2018-05-24T08:19:21.712Z,22.50
2018-05-24T08:21:49.366Z,22.60
2018-05-24T08:24:17.667Z,22.60
2018-05-24T08:26:45.260Z,22.60
2018-05-24T08:29:12.811Z,22.60
2018-05-24T08:31:40.510Z,22.60
2018-05-24T08:34:08.860Z,22.60
2018-05-24T08:36:36.415Z,22.60
2018-05-24T08:39:03.972Z,22.70
2018-05-24T08:41:31.528Z,22.90
2018-05-24T08:43:59.227Z,23.10
2018-05-24T08:46:27.562Z,23.60
2018-05-24T08:48:55.139Z,23.60
2018-05-24T08:51:22.727Z,23.50
2018-05-24T08:53:51.134Z,23.30
2018-05-24T08:56:18.700Z,23.30
2018-05-24T08:58:46.252Z,23.30
2018-05-24T09:01:13.896Z,23.00
2018-05-24T09:03:41.428Z,23.20
2018-05-24T09:06:09.010Z,23.30
2018-05-24T09:08:37.330Z,23.50
2018-05-24T09:11:04.916Z,23.50
2018-05-24T09:13:32.593Z,23.60
2018-05-24T09:16:00.155Z,23.80
2018-05-24T09:18:27.715Z,23.50
2018-05-24T09:20:55.353Z,23.60
2018-05-24T09:23:22.909Z,23.70
2018-05-24T09:25:50.480Z,23.80
2018-05-24T09:28:18.056Z,23.60
2018-05-24T09:30:45.623Z,22.90
2018-05-24T09:33:14.060Z,23.60
2018-05-24T09:35:41.629Z,24.20
2018-05-24T09:38:09.185Z,24.50
2018-05-24T09:40:36.888Z,24.10
2018-05-24T09:43:05.240Z,24.10
2018-05-24T09:45:32.905Z,24.10
2018-05-24T09:48:00.499Z,24.20
2018-05-24T09:50:28.840Z,24.40
2018-05-24T09:52:56.412Z,24.40
2018-05-24T09:55:24.080Z,24.40
2018-05-24T09:57:52.348Z,24.20
2018-05-24T10:00:22.948Z,24.20
2018-05-24T10:02:50.501Z,24.10
2018-05-24T10:05:18.097Z,24.10
2018-05-24T10:07:45.830Z,24.10
2018-05-24T10:10:13.395Z,23.90
2018-05-24T10:12:40.951Z,23.60
2018-05-24T10:15:08.511Z,23.30
2018-05-24T10:17:36.102Z,23.20
2018-05-24T10:20:03.661Z,23.20
2018-05-24T10:22:31.264Z,23.00
2018-05-24T10:24:58.832Z,23.30
2018-05-24T10:27:26.381Z,23.60
2018-05-24T10:29:54.066Z,23.80
2018-05-24T10:32:21.775Z,24.20
2018-05-24T10:34:49.357Z,24.40
2018-05-24T10:37:17.672Z,24.90
2018-05-24T10:39:45.259Z,24.90
2018-05-24T10:42:12.858Z,25.00
2018-05-24T10:44:41.195Z,24.90
2018-05-24T10:47:08.738Z,24.90
2018-05-24T10:49:36.428Z,24.60
2018-05-24T10:52:04.144Z,24.50
2018-05-24T10:54:31.703Z,24.60
2018-05-24T10:56:59.283Z,24.50
2018-05-24T10:59:26.878Z,24.30
2018-05-24T11:01:54.428Z,24.40
2018-05-24T11:04:21.991Z,24.60
2018-05-24T11:06:49.591Z,24.80
2018-05-24T11:09:17.911Z,25.40
2018-05-24T11:11:45.632Z,25.30
2018-05-24T11:14:13.165Z,25.40
2018-05-24T11:16:40.728Z,25.30
2018-05-24T11:19:08.295Z,25.50
2018-05-24T11:21:36.643Z,25.70
2018-05-24T11:24:04.196Z,25.70
2018-05-24T11:26:31.743Z,25.90
2018-05-24T11:28:59.334Z,25.80
2018-05-24T11:31:26.906Z,25.60
2018-05-24T11:33:54.467Z,25.50
2018-05-24T11:36:22.039Z,25.30
2018-05-24T11:38:49.623Z,25.10
2018-05-24T11:41:17.201Z,25.10
2018-05-24T11:43:44.820Z,25.20
2018-05-24T11:46:12.293Z,25.30
2018-05-24T11:48:40.611Z,25.40
2018-05-24T11:51:08.161Z,25.40
2018-05-24T11:53:35.783Z,25.50
2018-05-24T11:56:04.151Z,25.70
2018-05-24T11:58:32.616Z,25.60
2018-05-24T12:01:00.165Z,25.60
2018-05-24T12:03:27.813Z,25.50
2018-05-24T12:05:55.509Z,25.50
2018-05-24T12:08:23.161Z,25.70
2018-05-24T12:10:50.720Z,25.70
2018-05-24T12:13:19.791Z,25.80
2018-05-24T12:15:47.359Z,25.80
2018-05-24T12:18:14.956Z,25.80
2018-05-24T12:20:42.544Z,25.50
2018-05-24T12:23:10.103Z,25.30
2018-05-24T12:25:37.782Z,25.20
2018-05-24T12:28:05.351Z,25.20
2018-05-24T12:30:32.932Z,25.20
2018-05-24T12:33:00.557Z,25.00
2018-05-24T12:35:28.192Z,24.90
2018-05-24T12:37:55.674Z,24.80
2018-05-24T12:40:23.235Z,24.90
2018-05-24T12:42:50.793Z,25.00
2018-05-24T12:45:18.378Z,25.10
2018-05-24T12:47:45.985Z,25.40
2018-05-24T12:50:13.582Z,25.40
2018-05-24T12:52:41.154Z,25.50
2018-05-24T12:55:08.755Z,25.70
2018-05-24T12:57:36.636Z,25.80
2018-05-24T13:00:04.257Z,25.70
2018-05-24T13:02:31.835Z,25.70
2018-05-24T13:04:59.456Z,25.70
2018-05-24T13:07:27.036Z,25.70
2018-05-24T13:09:54.848Z,25.50
2018-05-24T13:12:23.103Z,25.10
2018-05-24T13:14:50.659Z,25.10
2018-05-24T13:17:19.144Z,24.90
2018-05-24T13:19:46.739Z,24.80
2018-05-24T13:22:15.056Z,24.70
2018-05-24T13:24:42.751Z,24.70
2018-05-24T13:27:10.420Z,24.70
2018-05-24T13:29:38.744Z,24.60
2018-05-24T13:32:06.324Z,24.50
2018-05-24T13:34:33.962Z,24.50
2018-05-24T13:37:01.610Z,24.40
2018-05-24T13:39:29.937Z,24.40
2018-05-24T13:41:57.495Z,24.40
2018-05-24T13:44:25.139Z,24.40
2018-05-24T13:46:52.786Z,24.50
2018-05-24T13:49:20.345Z,24.60
2018-05-24T13:51:47.879Z,24.70
2018-05-24T13:54:16.276Z,24.90
2018-05-24T13:56:43.879Z,24.90
2018-05-24T13:59:11.460Z,25.00
2018-05-24T14:01:39.180Z,25.20
2018-05-24T14:04:06.656Z,25.20
2018-05-24T14:06:34.204Z,25.20
2018-05-24T14:09:01.772Z,25.40
2018-05-24T14:11:29.376Z,25.40
2018-05-24T14:13:57.792Z,25.40
2018-05-24T14:16:25.343Z,25.30
2018-05-24T14:18:52.943Z,25.30
2018-05-24T14:21:20.696Z,25.30
2018-05-24T14:23:48.358Z,25.40
2018-05-24T14:26:15.964Z,25.50
2018-05-24T14:28:44.294Z,25.40
2018-05-24T14:31:11.869Z,25.40
2018-05-24T14:33:39.514Z,25.20
2018-05-24T14:36:07.159Z,25.30
2018-05-24T14:38:34.739Z,25.20
2018-05-24T14:41:02.295Z,25.20
2018-05-24T14:43:29.922Z,25.30
2018-05-24T14:45:58.239Z,25.50
2018-05-24T14:48:25.811Z,25.50
2018-05-24T14:50:53.387Z,25.50
2018-05-24T14:53:20.995Z,25.40
2018-05-24T14:55:48.617Z,25.30
2018-05-24T14:58:16.329Z,25.30
2018-05-24T15:00:43.981Z,25.30
2018-05-24T15:03:11.552Z,25.20
2018-05-24T15:05:39.136Z,25.50
2018-05-24T15:08:06.772Z,25.50
2018-05-24T15:10:34.323Z,25.40
2018-05-24T15:13:01.944Z,25.30
2018-05-24T15:15:29.503Z,25.40
2018-05-24T15:17:57.124Z,25.50
2018-05-24T15:20:24.701Z,25.60
2018-05-24T15:22:52.288Z,25.60
2018-05-24T15:25:19.857Z,25.50
2018-05-24T15:27:47.440Z,25.40
2018-05-24T15:30:15.037Z,25.40
2018-05-24T15:32:42.682Z,25.40
2018-05-24T15:35:10.341Z,25.30
2018-05-24T15:37:38.643Z,25.30
2018-05-24T15:40:06.368Z,25.30
2018-05-24T15:42:33.944Z,25.30
2018-05-24T15:45:01.509Z,25.50
2018-05-24T15:47:29.077Z,25.50
2018-05-24T15:49:56.661Z,25.30
2018-05-24T15:52:24.215Z,25.10
2018-05-24T15:54:51.806Z,24.90
2018-05-24T15:57:20.129Z,24.80
2018-05-24T15:59:47.707Z,24.80
2018-05-24T16:02:15.257Z,24.80
2018-05-24T16:04:42.848Z,24.90
2018-05-24T16:07:10.391Z,24.90
2018-05-24T16:09:37.960Z,24.80
2018-05-24T16:12:05.517Z,24.70
2018-05-24T16:14:33.119Z,24.50
2018-05-24T16:17:01.514Z,24.70
2018-05-24T16:19:29.064Z,24.70
2018-05-24T16:21:56.681Z,24.60
2018-05-24T16:24:24.227Z,24.50
2018-05-24T16:26:51.799Z,24.40
2018-05-24T16:29:19.360Z,24.40
2018-05-24T16:31:46.940Z,24.40
2018-05-24T16:34:14.493Z,24.20
2018-05-24T16:36:42.063Z,24.10
2018-05-24T16:39:10.381Z,24.00
2018-05-24T16:41:37.956Z,24.00
2018-05-24T16:44:05.532Z,24.10
2018-05-24T16:46:33.119Z,24.10
2018-05-24T16:49:00.727Z,24.20
2018-05-24T16:51:28.292Z,24.50
2018-05-24T16:53:55.868Z,24.50
2018-05-24T16:56:23.470Z,24.40
2018-05-24T16:58:51.791Z,24.30
2018-05-24T17:01:19.385Z,24.30
2018-05-24T17:03:46.959Z,24.20
2018-05-24T17:06:15.304Z,23.90
2018-05-24T17:08:43.013Z,23.90
2018-05-24T17:11:11.351Z,23.70
2018-05-24T17:13:38.942Z,23.70
2018-05-24T17:16:07.252Z,23.60
2018-05-24T17:18:34.929Z,23.50
2018-05-24T17:21:02.488Z,23.50
2018-05-24T17:23:30.040Z,23.40
2018-05-24T17:25:57.805Z,23.40
2018-05-24T17:28:25.418Z,23.40
2018-05-24T17:30:52.966Z,23.40
2018-05-24T17:33:20.566Z,23.30
2018-05-24T17:35:48.908Z,23.10
2018-05-24T17:38:16.459Z,23.10
2018-05-24T17:40:44.048Z,23.00
2018-05-24T17:43:12.407Z,23.00
2018-05-24T17:45:39.984Z,23.00
2018-05-24T17:48:08.409Z,22.90
2018-05-24T17:50:35.965Z,22.90
2018-05-24T17:53:03.524Z,22.80
2018-05-24T17:55:31.116Z,22.80
2018-05-24T17:57:58.666Z,22.60
2018-05-24T18:00:26.236Z,22.60
2018-05-24T18:02:53.847Z,22.50
2018-05-24T18:05:22.201Z,22.40
2018-05-24T18:07:49.780Z,22.40
2018-05-24T18:10:18.156Z,22.20
2018-05-24T18:12:46.533Z,22.10
2018-05-24T18:15:14.870Z,22.10
2018-05-24T18:17:42.454Z,22.00
2018-05-24T18:20:10.100Z,22.00
2018-05-24T18:22:37.698Z,22.00
2018-05-24T18:25:06.004Z,21.90
2018-05-24T18:27:33.583Z,21.80
2018-05-24T18:30:01.143Z,21.80
2018-05-24T18:32:28.722Z,21.70
2018-05-24T18:34:56.451Z,21.70
2018-05-24T18:37:24.027Z,21.50
2018-05-24T18:39:51.678Z,21.40
2018-05-24T18:42:19.335Z,21.40
2018-05-24T18:44:46.842Z,21.30
2018-05-24T18:47:16.043Z,21.20
2018-05-24T18:49:43.702Z,21.20
2018-05-24T18:52:11.241Z,21.10
2018-05-24T18:54:38.816Z,21.00
2018-05-24T18:57:06.371Z,21.00
2018-05-24T18:59:33.975Z,21.00
2018-05-24T19:02:02.383Z,20.90
2018-05-24T19:04:29.959Z,20.80
2018-05-24T19:06:57.583Z,20.70
2018-05-24T19:09:25.179Z,20.70
2018-05-24T19:11:52.749Z,20.70
2018-05-24T19:14:20.316Z,20.70
2018-05-24T19:16:47.871Z,20.60
2018-05-24T19:19:15.444Z,20.60
2018-05-24T19:21:43.050Z,20.60
2018-05-24T19:24:10.956Z,20.50
2018-05-24T19:26:39.109Z,20.40
2018-05-24T19:29:06.735Z,20.40
2018-05-24T19:31:35.080Z,20.30
2018-05-24T19:34:02.651Z,20.20
2018-05-24T19:36:30.239Z,20.30
2018-05-24T19:38:58.639Z,20.10
2018-05-24T19:41:26.230Z,20.10
2018-05-24T19:43:53.784Z,20.00
2018-05-24T19:46:21.379Z,20.00
2018-05-24T19:48:49.741Z,19.90
2018-05-24T19:51:17.308Z,19.90
2018-05-24T19:53:44.892Z,19.80
2018-05-24T19:56:13.220Z,19.80
2018-05-24T19:58:40.839Z,19.70
2018-05-24T20:01:09.195Z,19.70
2018-05-24T20:03:36.764Z,19.70
2018-05-24T20:06:05.135Z,19.60
2018-05-24T20:08:32.691Z,19.60
2018-05-24T20:11:00.304Z,19.60
2018-05-24T20:13:27.879Z,19.60
2018-05-24T20:15:55.616Z,19.60
2018-05-24T20:18:23.192Z,19.60
2018-05-24T20:20:50.748Z,19.60
2018-05-24T20:23:18.344Z,19.60
2018-05-24T20:25:45.903Z,19.60
2018-05-24T20:28:13.622Z,19.50
2018-05-24T20:30:41.176Z,19.40
2018-05-24T20:33:08.834Z,19.40
2018-05-24T20:35:36.501Z,19.40
2018-05-24T20:38:04.044Z,19.40
2018-05-24T20:40:32.468Z,19.30
2018-05-24T20:43:00.049Z,19.30
2018-05-24T20:45:27.684Z,19.30
2018-05-24T20:47:55.279Z,19.30
2018-05-24T20:50:22.851Z,19.20
2018-05-24T20:52:50.450Z,19.20
2018-05-24T20:55:18.115Z,19.10
2018-05-24T20:57:45.880Z,19.10
2018-05-24T21:00:13.437Z,19.10
2018-05-24T21:02:41.008Z,19.10
2018-05-24T21:05:08.609Z,19.10
2018-05-24T21:07:36.186Z,19.10
2018-05-24T21:10:03.788Z,19.00
2018-05-24T21:12:31.384Z,18.90
2018-05-24T21:14:58.959Z,18.90
2018-05-24T21:17:27.301Z,18.80
2018-05-24T21:19:54.876Z,18.80
2018-05-24T21:22:22.484Z,18.80
2018-05-24T21:24:50.071Z,18.70
2018-05-24T21:27:17.670Z,18.70
2018-05-24T21:29:45.394Z,18.60
2018-05-24T21:32:13.050Z,18.60
2018-05-24T21:34:40.592Z,18.50
2018-05-24T21:37:09.092Z,18.40
2018-05-24T21:39:36.747Z,18.40
2018-05-24T21:42:04.303Z,18.40
2018-05-24T21:44:31.864Z,18.40
2018-05-24T21:46:59.470Z,18.30
2018-05-24T21:49:27.028Z,18.30
2018-05-24T21:51:54.631Z,18.20
2018-05-24T21:54:22.970Z,18.20
2018-05-24T21:56:50.533Z,18.10
2018-05-24T21:59:18.145Z,18.20
2018-05-24T22:01:45.739Z,18.10
2018-05-24T22:04:13.318Z,18.10
2018-05-24T22:06:41.028Z,18.10
2018-05-24T22:09:08.615Z,18.10
2018-05-24T22:11:36.171Z,18.00
2018-05-24T22:14:03.852Z,18.00
2018-05-24T22:16:31.419Z,17.90
2018-05-24T22:18:59.191Z,17.90
2018-05-24T22:21:26.768Z,17.80
2018-05-24T22:23:55.124Z,17.80
2018-05-24T22:26:22.679Z,17.70
2018-05-24T22:28:50.424Z,17.70
2018-05-24T22:31:18.000Z,17.70
2018-05-24T22:33:45.563Z,17.60
2018-05-24T22:36:13.191Z,17.60
2018-05-24T22:38:40.744Z,17.60
2018-05-24T22:41:08.310Z,17.50
2018-05-24T22:43:35.900Z,17.50
2018-05-24T22:46:03.488Z,17.50
2018-05-24T22:48:31.063Z,17.50
2018-05-24T22:50:59.459Z,17.40
2018-05-24T22:53:27.772Z,17.30
2018-05-24T22:55:55.412Z,17.30
2018-05-24T22:58:23.023Z,17.30
2018-05-24T23:00:50.585Z,17.30
2018-05-24T23:03:18.332Z,17.30
2018-05-24T23:05:46.037Z,17.30
2018-05-24T23:08:14.377Z,17.30
2018-05-24T23:10:42.024Z,17.30
2018-05-24T23:13:09.636Z,17.30
2018-05-24T23:15:37.967Z,17.20
2018-05-24T23:18:05.704Z,17.20
2018-05-24T23:20:33.271Z,17.20
2018-05-24T23:23:00.848Z,17.10
2018-05-24T23:25:28.456Z,17.10
2018-05-24T23:27:56.775Z,17.10
2018-05-24T23:30:24.433Z,17.00
2018-05-24T23:32:52.163Z,17.00
2018-05-24T23:35:20.500Z,17.00
2018-05-24T23:37:48.081Z,16.90
2018-05-24T23:40:16.409Z,16.90
2018-05-24T23:42:44.109Z,16.90
2018-05-24T23:45:11.668Z,16.90
2018-05-24T23:47:39.237Z,16.90
2018-05-24T23:50:06.788Z,16.90
2018-05-24T23:52:34.461Z,16.90
2018-05-24T23:55:02.029Z,16.80
2018-05-24T23:57:29.605Z,16.80
2018-05-24T23:59:57.916Z,16.80
